<?xml version="1.0" encoding="UTF-8" standalone="no" ?>
<gpx xmlns="http://www.topografix.com/GPX/1/1" xmlns:xsi="http://www.w3.org/2001/XMLSchema-instance" xsi:schemaLocation="http://www.topografix.com/GPX/1/1 http://www.topografix.com/GPX/1/1/gpx.xsd" version="1.1" creator="VisuGPX - https://www.visugpx.com">
  <metadata>
    <name>Carnac &gt; Trévarez</name>
    <desc><![CDATA[Parcours cyclo club carnac aller du 03 JUIN 2017]]></desc>
  </metadata>
  <trk>
    <name><![CDATA[OR-6935808--Carnac:Carnac Domaine de Trévarez **]]></name>
    <trkseg>
      <trkpt lat="47.59176" lon="-3.08303">
        <ele>20</ele>
        <time>2017-02-02T16:02:26Z</time>
      </trkpt>
      <trkpt lat="47.58809" lon="-3.09025">
        <ele>16</ele>
        <time>2017-02-02T18:08:26Z</time>
      </trkpt>
      <trkpt lat="47.59975" lon="-3.11518">
        <ele>21</ele>
        <time>2017-02-02T22:14:26Z</time>
      </trkpt>
      <trkpt lat="47.67043" lon="-3.18406">
        <ele>11</ele>
        <time>2017-02-03T06:18:26Z</time>
      </trkpt>
      <trkpt lat="47.67604" lon="-3.20241">
        <ele>5.2</ele>
        <time>2017-02-03T09:00:26Z</time>
      </trkpt>
      <trkpt lat="47.68398" lon="-3.21362">
        <ele>7</ele>
        <time>2017-02-03T10:32:26Z</time>
      </trkpt>
      <trkpt lat="47.70995" lon="-3.22126">
        <ele>16</ele>
        <time>2017-02-03T15:40:26Z</time>
      </trkpt>
      <trkpt lat="47.72142" lon="-3.23015">
        <ele>12</ele>
        <time>2017-02-03T17:10:26Z</time>
      </trkpt>
      <trkpt lat="47.74371" lon="-3.22593">
        <ele>12</ele>
        <time>2017-02-03T20:08:26Z</time>
      </trkpt>
      <trkpt lat="47.75196" lon="-3.23031">
        <ele>25</ele>
        <time>2017-02-03T21:02:26Z</time>
      </trkpt>
      <trkpt lat="47.75747" lon="-3.24478">
        <ele>29</ele>
        <time>2017-02-03T22:10:26Z</time>
      </trkpt>
      <trkpt lat="47.76218" lon="-3.24026">
        <ele>42</ele>
        <time>2017-02-03T23:52:26Z</time>
      </trkpt>
      <trkpt lat="47.79515" lon="-3.26802">
        <ele>33</ele>
        <time>2017-02-04T05:14:26Z</time>
      </trkpt>
      <trkpt lat="47.79565" lon="-3.27454">
        <ele>6</ele>
        <time>2017-02-04T06:14:26Z</time>
      </trkpt>
      <trkpt lat="47.80273" lon="-3.27763">
        <ele>10</ele>
        <time>2017-02-04T07:08:26Z</time>
      </trkpt>
      <trkpt lat="47.82706" lon="-3.31279">
        <ele>76</ele>
        <time>2017-02-04T13:38:26Z</time>
      </trkpt>
      <trkpt lat="47.83572" lon="-3.36696">
        <ele>54</ele>
        <time>2017-02-04T18:34:26Z</time>
      </trkpt>
      <trkpt lat="47.8316" lon="-3.38274">
        <ele>35</ele>
        <time>2017-02-04T20:26:26Z</time>
      </trkpt>
      <trkpt lat="47.83612" lon="-3.40173">
        <ele>36</ele>
        <time>2017-02-04T23:42:26Z</time>
      </trkpt>
      <trkpt lat="47.85177" lon="-3.41283">
        <ele>57</ele>
        <time>2017-02-05T02:44:26Z</time>
      </trkpt>
      <trkpt lat="47.86482" lon="-3.44329">
        <ele>71</ele>
        <time>2017-02-05T06:08:26Z</time>
      </trkpt>
      <trkpt lat="47.87728" lon="-3.45152">
        <ele>74</ele>
        <time>2017-02-05T07:54:26Z</time>
      </trkpt>
      <trkpt lat="47.8992" lon="-3.45334">
        <ele>73</ele>
        <time>2017-02-05T13:04:26Z</time>
      </trkpt>
      <trkpt lat="47.89915" lon="-3.4689">
        <ele>48</ele>
        <time>2017-02-05T15:18:26Z</time>
      </trkpt>
      <trkpt lat="47.90424" lon="-3.46854">
        <ele>29</ele>
        <time>2017-02-05T17:02:26Z</time>
      </trkpt>
      <trkpt lat="47.90543" lon="-3.4758">
        <ele>30</ele>
        <time>2017-02-05T18:24:26Z</time>
      </trkpt>
      <trkpt lat="47.90903" lon="-3.47574">
        <ele>37</ele>
        <time>2017-02-05T19:26:26Z</time>
      </trkpt>
      <trkpt lat="47.91052" lon="-3.48604">
        <ele>82</ele>
        <time>2017-02-05T20:56:26Z</time>
      </trkpt>
      <trkpt lat="47.92421" lon="-3.49827">
        <ele>90</ele>
        <time>2017-02-05T23:52:26Z</time>
      </trkpt>
      <trkpt lat="47.94136" lon="-3.4972">
        <ele>114</ele>
        <time>2017-02-06T03:32:26Z</time>
      </trkpt>
      <trkpt lat="47.93969" lon="-3.50907">
        <ele>106</ele>
        <time>2017-02-06T07:12:26Z</time>
      </trkpt>
      <trkpt lat="47.94572" lon="-3.50813">
        <ele>102</ele>
        <time>2017-02-06T08:30:26Z</time>
      </trkpt>
      <trkpt lat="47.95339" lon="-3.53035">
        <ele>140</ele>
        <time>2017-02-06T12:56:26Z</time>
      </trkpt>
      <trkpt lat="47.97323" lon="-3.543">
        <ele>148</ele>
        <time>2017-02-06T15:56:26Z</time>
      </trkpt>
      <trkpt lat="48.00102" lon="-3.54077">
        <ele>135</ele>
        <time>2017-02-06T21:52:26Z</time>
      </trkpt>
      <trkpt lat="48.02584" lon="-3.54664">
        <ele>148</ele>
        <time>2017-02-07T03:14:26Z</time>
      </trkpt>
      <trkpt lat="48.03718" lon="-3.55611">
        <ele>133</ele>
        <time>2017-02-07T05:36:26Z</time>
      </trkpt>
      <trkpt lat="48.11509" lon="-3.5628">
        <ele>197</ele>
        <time>2017-02-07T16:24:26Z</time>
      </trkpt>
      <trkpt lat="48.12454" lon="-3.58463">
        <ele>203</ele>
        <time>2017-02-07T18:48:26Z</time>
      </trkpt>
      <trkpt lat="48.13152" lon="-3.5904">
        <ele>176</ele>
        <time>2017-02-07T19:50:26Z</time>
      </trkpt>
      <trkpt lat="48.13716" lon="-3.60628">
        <ele>143</ele>
        <time>2017-02-07T23:56:26Z</time>
      </trkpt>
      <trkpt lat="48.159" lon="-3.63382">
        <ele>206</ele>
        <time>2017-02-08T04:30:26Z</time>
      </trkpt>
      <trkpt lat="48.15874" lon="-3.64214">
        <ele>225</ele>
        <time>2017-02-08T05:18:26Z</time>
      </trkpt>
      <trkpt lat="48.1641" lon="-3.64816">
        <ele>268</ele>
        <time>2017-02-08T06:08:26Z</time>
      </trkpt>
      <trkpt lat="48.16571" lon="-3.66">
        <ele>266</ele>
        <time>2017-02-08T07:20:26Z</time>
      </trkpt>
      <trkpt lat="48.19193" lon="-3.68662">
        <ele>140</ele>
        <time>2017-02-08T11:28:26Z</time>
      </trkpt>
      <trkpt lat="48.19109" lon="-3.72885">
        <ele>87</ele>
        <time>2017-02-08T15:58:26Z</time>
      </trkpt>
      <trkpt lat="48.17166" lon="-3.75657">
        <ele>68</ele>
        <time>2017-02-08T20:02:26Z</time>
      </trkpt>
      <trkpt lat="48.16825" lon="-3.77403">
        <ele>55</ele>
        <time>2017-02-08T21:42:26Z</time>
      </trkpt>
      <trkpt lat="48.15269" lon="-3.79964">
        <ele>184</ele>
        <time>2017-02-09T02:16:26Z</time>
      </trkpt>
    </trkseg>
  </trk>
  <rte>
    <name><![CDATA[OR-6935808--Carnac:Carnac Domaine de Trévarez **]]></name>
    <desc><![CDATA[Generated from track OR-6935808--Carnac:Carnac Domaine de Trévarez **]]></desc>
      <rtept lat="47.59176" lon="-3.08303">
        <ele>20</ele>
        <name><![CDATA[RPT001]]></name>
      </rtept>
      <rtept lat="47.58809" lon="-3.09025">
        <ele>16</ele>
        <name><![CDATA[RPT002]]></name>
      </rtept>
      <rtept lat="47.59975" lon="-3.11518">
        <ele>21</ele>
        <name><![CDATA[RPT003]]></name>
      </rtept>
      <rtept lat="47.67043" lon="-3.18406">
        <ele>11</ele>
        <name><![CDATA[RPT004]]></name>
      </rtept>
      <rtept lat="47.67604" lon="-3.20241">
        <ele>5.2</ele>
        <name><![CDATA[RPT005]]></name>
      </rtept>
      <rtept lat="47.68398" lon="-3.21362">
        <ele>7</ele>
        <name><![CDATA[RPT006]]></name>
      </rtept>
      <rtept lat="47.70995" lon="-3.22126">
        <ele>16</ele>
        <name><![CDATA[RPT007]]></name>
      </rtept>
      <rtept lat="47.72142" lon="-3.23015">
        <ele>12</ele>
        <name><![CDATA[RPT008]]></name>
      </rtept>
      <rtept lat="47.74371" lon="-3.22593">
        <ele>12</ele>
        <name><![CDATA[RPT009]]></name>
      </rtept>
      <rtept lat="47.75196" lon="-3.23031">
        <ele>25</ele>
        <name><![CDATA[RPT010]]></name>
      </rtept>
      <rtept lat="47.75747" lon="-3.24478">
        <ele>29</ele>
        <name><![CDATA[RPT011]]></name>
      </rtept>
      <rtept lat="47.76218" lon="-3.24026">
        <ele>42</ele>
        <name><![CDATA[RPT012]]></name>
      </rtept>
      <rtept lat="47.79515" lon="-3.26802">
        <ele>33</ele>
        <name><![CDATA[RPT013]]></name>
      </rtept>
      <rtept lat="47.79565" lon="-3.27454">
        <ele>6</ele>
        <name><![CDATA[RPT014]]></name>
      </rtept>
      <rtept lat="47.80273" lon="-3.27763">
        <ele>10</ele>
        <name><![CDATA[RPT015]]></name>
      </rtept>
      <rtept lat="47.82706" lon="-3.31279">
        <ele>76</ele>
        <name><![CDATA[RPT016]]></name>
      </rtept>
      <rtept lat="47.83572" lon="-3.36696">
        <ele>54</ele>
        <name><![CDATA[RPT017]]></name>
      </rtept>
      <rtept lat="47.8316" lon="-3.38274">
        <ele>35</ele>
        <name><![CDATA[RPT018]]></name>
      </rtept>
      <rtept lat="47.83612" lon="-3.40173">
        <ele>36</ele>
        <name><![CDATA[RPT019]]></name>
      </rtept>
      <rtept lat="47.85177" lon="-3.41283">
        <ele>57</ele>
        <name><![CDATA[RPT020]]></name>
      </rtept>
      <rtept lat="47.86482" lon="-3.44329">
        <ele>71</ele>
        <name><![CDATA[RPT021]]></name>
      </rtept>
      <rtept lat="47.87728" lon="-3.45152">
        <ele>74</ele>
        <name><![CDATA[RPT022]]></name>
      </rtept>
      <rtept lat="47.8992" lon="-3.45334">
        <ele>73</ele>
        <name><![CDATA[RPT023]]></name>
      </rtept>
      <rtept lat="47.89915" lon="-3.4689">
        <ele>48</ele>
        <name><![CDATA[RPT024]]></name>
      </rtept>
      <rtept lat="47.90424" lon="-3.46854">
        <ele>29</ele>
        <name><![CDATA[RPT025]]></name>
      </rtept>
      <rtept lat="47.90543" lon="-3.4758">
        <ele>30</ele>
        <name><![CDATA[RPT026]]></name>
      </rtept>
      <rtept lat="47.90903" lon="-3.47574">
        <ele>37</ele>
        <name><![CDATA[RPT027]]></name>
      </rtept>
      <rtept lat="47.91052" lon="-3.48604">
        <ele>82</ele>
        <name><![CDATA[RPT028]]></name>
      </rtept>
      <rtept lat="47.92421" lon="-3.49827">
        <ele>90</ele>
        <name><![CDATA[RPT029]]></name>
      </rtept>
      <rtept lat="47.94136" lon="-3.4972">
        <ele>114</ele>
        <name><![CDATA[RPT030]]></name>
      </rtept>
      <rtept lat="47.93969" lon="-3.50907">
        <ele>106</ele>
        <name><![CDATA[RPT031]]></name>
      </rtept>
      <rtept lat="47.94572" lon="-3.50813">
        <ele>102</ele>
        <name><![CDATA[RPT032]]></name>
      </rtept>
      <rtept lat="47.95339" lon="-3.53035">
        <ele>140</ele>
        <name><![CDATA[RPT033]]></name>
      </rtept>
      <rtept lat="47.97323" lon="-3.543">
        <ele>148</ele>
        <name><![CDATA[RPT034]]></name>
      </rtept>
      <rtept lat="48.00102" lon="-3.54077">
        <ele>135</ele>
        <name><![CDATA[RPT035]]></name>
      </rtept>
      <rtept lat="48.02584" lon="-3.54664">
        <ele>148</ele>
        <name><![CDATA[RPT036]]></name>
      </rtept>
      <rtept lat="48.03718" lon="-3.55611">
        <ele>133</ele>
        <name><![CDATA[RPT037]]></name>
      </rtept>
      <rtept lat="48.11509" lon="-3.5628">
        <ele>197</ele>
        <name><![CDATA[RPT038]]></name>
      </rtept>
      <rtept lat="48.12454" lon="-3.58463">
        <ele>203</ele>
        <name><![CDATA[RPT039]]></name>
      </rtept>
      <rtept lat="48.13152" lon="-3.5904">
        <ele>176</ele>
        <name><![CDATA[RPT040]]></name>
      </rtept>
      <rtept lat="48.13716" lon="-3.60628">
        <ele>143</ele>
        <name><![CDATA[RPT041]]></name>
      </rtept>
      <rtept lat="48.159" lon="-3.63382">
        <ele>206</ele>
        <name><![CDATA[RPT042]]></name>
      </rtept>
      <rtept lat="48.15874" lon="-3.64214">
        <ele>225</ele>
        <name><![CDATA[RPT043]]></name>
      </rtept>
      <rtept lat="48.1641" lon="-3.64816">
        <ele>268</ele>
        <name><![CDATA[RPT044]]></name>
      </rtept>
      <rtept lat="48.16571" lon="-3.66">
        <ele>266</ele>
        <name><![CDATA[RPT045]]></name>
      </rtept>
      <rtept lat="48.19193" lon="-3.68662">
        <ele>140</ele>
        <name><![CDATA[RPT046]]></name>
      </rtept>
      <rtept lat="48.19109" lon="-3.72885">
        <ele>87</ele>
        <name><![CDATA[RPT047]]></name>
      </rtept>
      <rtept lat="48.17166" lon="-3.75657">
        <ele>68</ele>
        <name><![CDATA[RPT048]]></name>
      </rtept>
      <rtept lat="48.16825" lon="-3.77403">
        <ele>55</ele>
        <name><![CDATA[RPT049]]></name>
      </rtept>
      <rtept lat="48.15269" lon="-3.79964">
        <ele>184</ele>
        <name><![CDATA[RPT050]]></name>
      </rtept>
    </rte>
</gpx>